sensor_id;sensor_type;location;lat;lon;timestamp;temperature;humidity
38325;DHT22;24126;52.672;13.622;2022-08-19T00:02:01;26.40;68.60
38325;DHT22;24126;52.672;13.622;2022-08-19T00:04:32;26.40;68.70
38325;DHT22;24126;52.672;13.622;2022-08-19T00:07:03;26.40;68.70
38325;DHT22;24126;52.672;13.622;2022-08-19T00:09:30;26.40;68.70
38325;DHT22;24126;52.672;13.622;2022-08-19T00:11:57;26.40;68.80
38325;DHT22;24126;52.672;13.622;2022-08-19T00:14:25;26.40;68.90
38325;DHT22;24126;52.672;13.622;2022-08-19T00:16:53;26.40;69.10
38325;DHT22;24126;52.672;13.622;2022-08-19T00:19:21;26.40;69.10
38325;DHT22;24126;52.672;13.622;2022-08-19T00:21:48;26.40;69.20
38325;DHT22;24126;52.672;13.622;2022-08-19T00:24:15;26.40;69.20
38325;DHT22;24126;52.672;13.622;2022-08-19T00:26:43;26.40;69.30
38325;DHT22;24126;52.672;13.622;2022-08-19T00:29:11;26.40;69.50
38325;DHT22;24126;52.672;13.622;2022-08-19T00:31:39;26.40;69.50
38325;DHT22;24126;52.672;13.622;2022-08-19T00:34:07;26.40;69.50
38325;DHT22;24126;52.672;13.622;2022-08-19T00:36:34;26.40;69.60
38325;DHT22;24126;52.672;13.622;2022-08-19T00:39:03;26.40;69.70
38325;DHT22;24126;52.672;13.622;2022-08-19T00:41:30;26.40;69.80
38325;DHT22;24126;52.672;13.622;2022-08-19T00:44:17;26.40;69.80
38325;DHT22;24126;52.672;13.622;2022-08-19T00:46:46;26.40;70.00
38325;DHT22;24126;52.672;13.622;2022-08-19T00:51:46;26.30;70.20
38325;DHT22;24126;52.672;13.622;2022-08-19T00:54:14;26.30;70.30
38325;DHT22;24126;52.672;13.622;2022-08-19T00:56:41;26.30;70.30
38325;DHT22;24126;52.672;13.622;2022-08-19T00:59:09;26.30;70.20
38325;DHT22;24126;52.672;13.622;2022-08-19T01:01:38;26.30;70.10
38325;DHT22;24126;52.672;13.622;2022-08-19T01:04:06;26.30;70.10
38325;DHT22;24126;52.672;13.622;2022-08-19T01:06:35;26.40;70.00
38325;DHT22;24126;52.672;13.622;2022-08-19T01:09:03;26.30;69.80
38325;DHT22;24126;52.672;13.622;2022-08-19T01:11:31;26.40;69.90
38325;DHT22;24126;52.672;13.622;2022-08-19T01:14:00;26.40;70.60
38325;DHT22;24126;52.672;13.622;2022-08-19T01:16:27;26.40;70.00
38325;DHT22;24126;52.672;13.622;2022-08-19T01:18:55;26.40;70.10
38325;DHT22;24126;52.672;13.622;2022-08-19T01:23:50;26.30;70.10
38325;DHT22;24126;52.672;13.622;2022-08-19T01:26:19;26.30;70.10
38325;DHT22;24126;52.672;13.622;2022-08-19T01:28:48;26.40;70.30
38325;DHT22;24126;52.672;13.622;2022-08-19T01:31:17;26.40;70.40
38325;DHT22;24126;52.672;13.622;2022-08-19T01:33:47;26.30;70.40
38325;DHT22;24126;52.672;13.622;2022-08-19T01:36:16;26.30;70.50
38325;DHT22;24126;52.672;13.622;2022-08-19T01:38:48;26.30;70.50
38325;DHT22;24126;52.672;13.622;2022-08-19T01:41:16;26.30;70.60
38325;DHT22;24126;52.672;13.622;2022-08-19T01:43:44;26.30;70.60
38325;DHT22;24126;52.672;13.622;2022-08-19T01:46:11;26.20;71.10
38325;DHT22;24126;52.672;13.622;2022-08-19T01:48:39;26.10;71.50
38325;DHT22;24126;52.672;13.622;2022-08-19T01:51:07;26.10;71.80
38325;DHT22;24126;52.672;13.622;2022-08-19T01:53:35;26.00;71.60
38325;DHT22;24126;52.672;13.622;2022-08-19T01:56:02;26.10;71.70
38325;DHT22;24126;52.672;13.622;2022-08-19T01:58:32;26.10;71.70
38325;DHT22;24126;52.672;13.622;2022-08-19T02:01:03;26.00;71.70
38325;DHT22;24126;52.672;13.622;2022-08-19T02:03:30;26.00;71.80
38325;DHT22;24126;52.672;13.622;2022-08-19T02:05:59;26.10;71.90
38325;DHT22;24126;52.672;13.622;2022-08-19T02:08:27;26.10;71.90
38325;DHT22;24126;52.672;13.622;2022-08-19T02:10:54;26.10;71.90
38325;DHT22;24126;52.672;13.622;2022-08-19T02:13:22;26.10;71.80
38325;DHT22;24126;52.672;13.622;2022-08-19T02:15:49;26.10;71.80
38325;DHT22;24126;52.672;13.622;2022-08-19T02:18:17;26.10;71.60
38325;DHT22;24126;52.672;13.622;2022-08-19T02:20:44;26.00;71.60
38325;DHT22;24126;52.672;13.622;2022-08-19T02:23:13;26.00;71.60
38325;DHT22;24126;52.672;13.622;2022-08-19T02:25:41;26.00;71.70
38325;DHT22;24126;52.672;13.622;2022-08-19T02:28:08;26.00;71.60
38325;DHT22;24126;52.672;13.622;2022-08-19T02:30:35;25.90;71.40
38325;DHT22;24126;52.672;13.622;2022-08-19T02:33:04;25.90;71.50
38325;DHT22;24126;52.672;13.622;2022-08-19T02:35:31;25.90;71.60
38325;DHT22;24126;52.672;13.622;2022-08-19T02:37:58;25.90;71.60
38325;DHT22;24126;52.672;13.622;2022-08-19T02:40:50;25.80;71.70
38325;DHT22;24126;52.672;13.622;2022-08-19T02:43:18;25.80;71.80
38325;DHT22;24126;52.672;13.622;2022-08-19T02:45:47;25.80;71.90
38325;DHT22;24126;52.672;13.622;2022-08-19T02:48:15;25.80;72.00
38325;DHT22;24126;52.672;13.622;2022-08-19T02:50:44;25.70;72.00
38325;DHT22;24126;52.672;13.622;2022-08-19T02:53:11;25.70;72.00
38325;DHT22;24126;52.672;13.622;2022-08-19T02:55:45;25.70;72.00
38325;DHT22;24126;52.672;13.622;2022-08-19T02:58:14;25.70;72.00
38325;DHT22;24126;52.672;13.622;2022-08-19T03:00:42;25.70;72.10
38325;DHT22;24126;52.672;13.622;2022-08-19T03:03:10;25.70;72.10
38325;DHT22;24126;52.672;13.622;2022-08-19T03:05:37;25.70;72.20
38325;DHT22;24126;52.672;13.622;2022-08-19T03:08:05;25.70;72.20
38325;DHT22;24126;52.672;13.622;2022-08-19T03:10:32;25.70;71.90
38325;DHT22;24126;52.672;13.622;2022-08-19T03:12:59;25.70;72.10
38325;DHT22;24126;52.672;13.622;2022-08-19T03:15:26;25.70;72.00
38325;DHT22;24126;52.672;13.622;2022-08-19T03:17:53;25.70;72.10
38325;DHT22;24126;52.672;13.622;2022-08-19T03:20:21;25.70;72.20
38325;DHT22;24126;52.672;13.622;2022-08-19T03:22:48;25.70;72.20
38325;DHT22;24126;52.672;13.622;2022-08-19T03:25:15;25.70;72.20
38325;DHT22;24126;52.672;13.622;2022-08-19T03:27:42;25.70;72.30
38325;DHT22;24126;52.672;13.622;2022-08-19T03:30:10;25.70;72.10
38325;DHT22;24126;52.672;13.622;2022-08-19T03:32:37;25.70;72.00
38325;DHT22;24126;52.672;13.622;2022-08-19T03:35:05;25.60;72.00
38325;DHT22;24126;52.672;13.622;2022-08-19T03:37:32;25.60;72.20
38325;DHT22;24126;52.672;13.622;2022-08-19T03:39:59;25.60;72.20
38325;DHT22;24126;52.672;13.622;2022-08-19T03:42:29;25.50;72.10
38325;DHT22;24126;52.672;13.622;2022-08-19T03:44:56;25.50;72.20
38325;DHT22;24126;52.672;13.622;2022-08-19T03:47:24;25.50;72.00
38325;DHT22;24126;52.672;13.622;2022-08-19T03:49:51;25.50;72.20
38325;DHT22;24126;52.672;13.622;2022-08-19T03:52:18;25.50;72.10
38325;DHT22;24126;52.672;13.622;2022-08-19T03:54:45;25.50;72.10
38325;DHT22;24126;52.672;13.622;2022-08-19T03:57:13;25.50;72.20
38325;DHT22;24126;52.672;13.622;2022-08-19T03:59:40;25.40;72.10
38325;DHT22;24126;52.672;13.622;2022-08-19T04:02:11;25.40;72.10
38325;DHT22;24126;52.672;13.622;2022-08-19T04:04:39;25.40;72.20
38325;DHT22;24126;52.672;13.622;2022-08-19T04:07:07;25.40;72.40
38325;DHT22;24126;52.672;13.622;2022-08-19T04:09:35;25.30;72.50
38325;DHT22;24126;52.672;13.622;2022-08-19T04:12:03;25.30;72.40
38325;DHT22;24126;52.672;13.622;2022-08-19T04:14:31;25.40;72.50
38325;DHT22;24126;52.672;13.622;2022-08-19T04:16:59;25.30;72.40
38325;DHT22;24126;52.672;13.622;2022-08-19T04:19:29;25.30;72.60
38325;DHT22;24126;52.672;13.622;2022-08-19T04:21:56;25.30;72.70
38325;DHT22;24126;52.672;13.622;2022-08-19T04:24:24;25.30;72.50
38325;DHT22;24126;52.672;13.622;2022-08-19T04:26:51;25.30;72.30
38325;DHT22;24126;52.672;13.622;2022-08-19T04:29:22;25.30;72.50
38325;DHT22;24126;52.672;13.622;2022-08-19T04:31:51;25.30;72.60
38325;DHT22;24126;52.672;13.622;2022-08-19T04:34:19;25.20;72.70
38325;DHT22;24126;52.672;13.622;2022-08-19T04:36:48;25.30;72.30
38325;DHT22;24126;52.672;13.622;2022-08-19T04:39:18;25.30;72.60
38325;DHT22;24126;52.672;13.622;2022-08-19T04:41:46;25.30;72.60
38325;DHT22;24126;52.672;13.622;2022-08-19T04:44:32;25.20;72.40
38325;DHT22;24126;52.672;13.622;2022-08-19T04:46:59;25.20;72.70
38325;DHT22;24126;52.672;13.622;2022-08-19T04:49:26;25.20;72.60
38325;DHT22;24126;52.672;13.622;2022-08-19T04:51:54;25.20;72.70
38325;DHT22;24126;52.672;13.622;2022-08-19T04:54:22;25.20;72.90
38325;DHT22;24126;52.672;13.622;2022-08-19T04:56:54;25.10;73.00
38325;DHT22;24126;52.672;13.622;2022-08-19T04:59:21;25.20;73.10
38325;DHT22;24126;52.672;13.622;2022-08-19T05:01:48;25.10;73.00
38325;DHT22;24126;52.672;13.622;2022-08-19T05:04:17;25.20;73.90
38325;DHT22;24126;52.672;13.622;2022-08-19T05:06:46;25.20;73.30
38325;DHT22;24126;52.672;13.622;2022-08-19T05:09:14;25.10;73.10
38325;DHT22;24126;52.672;13.622;2022-08-19T05:11:42;25.10;73.20
38325;DHT22;24126;52.672;13.622;2022-08-19T05:14:10;25.10;73.20
38325;DHT22;24126;52.672;13.622;2022-08-19T05:16:38;25.20;73.40
38325;DHT22;24126;52.672;13.622;2022-08-19T05:19:06;25.20;73.40
38325;DHT22;24126;52.672;13.622;2022-08-19T05:21:51;25.20;73.60
38325;DHT22;24126;52.672;13.622;2022-08-19T05:24:36;25.20;73.70
38325;DHT22;24126;52.672;13.622;2022-08-19T05:27:03;25.30;73.60
38325;DHT22;24126;52.672;13.622;2022-08-19T05:29:31;25.40;73.80
38325;DHT22;24126;52.672;13.622;2022-08-19T05:32:00;25.40;74.20
38325;DHT22;24126;52.672;13.622;2022-08-19T05:34:28;25.40;73.50
38325;DHT22;24126;52.672;13.622;2022-08-19T05:36:56;25.50;73.80
38325;DHT22;24126;52.672;13.622;2022-08-19T05:39:25;25.60;73.90
38325;DHT22;24126;52.672;13.622;2022-08-19T05:41:54;25.70;73.90
38325;DHT22;24126;52.672;13.622;2022-08-19T05:44:26;25.90;73.90
38325;DHT22;24126;52.672;13.622;2022-08-19T05:47:00;26.00;73.50
38325;DHT22;24126;52.672;13.622;2022-08-19T05:49:28;26.00;73.20
38325;DHT22;24126;52.672;13.622;2022-08-19T05:51:55;26.10;73.00
38325;DHT22;24126;52.672;13.622;2022-08-19T05:54:25;26.20;73.30
38325;DHT22;24126;52.672;13.622;2022-08-19T05:56:53;26.20;73.10
38325;DHT22;24126;52.672;13.622;2022-08-19T05:59:20;26.20;72.60
38325;DHT22;24126;52.672;13.622;2022-08-19T06:01:49;26.20;72.90
38325;DHT22;24126;52.672;13.622;2022-08-19T06:04:18;26.20;73.00
38325;DHT22;24126;52.672;13.622;2022-08-19T06:06:46;26.20;73.00
38325;DHT22;24126;52.672;13.622;2022-08-19T06:09:13;26.20;72.90
38325;DHT22;24126;52.672;13.622;2022-08-19T06:11:43;26.20;73.00
38325;DHT22;24126;52.672;13.622;2022-08-19T06:14:12;26.20;72.90
38325;DHT22;24126;52.672;13.622;2022-08-19T06:16:40;26.20;72.90
38325;DHT22;24126;52.672;13.622;2022-08-19T06:19:09;26.20;73.20
38325;DHT22;24126;52.672;13.622;2022-08-19T06:21:37;26.20;73.30
38325;DHT22;24126;52.672;13.622;2022-08-19T06:24:07;26.10;73.30
38325;DHT22;24126;52.672;13.622;2022-08-19T06:26:36;26.20;73.30
38325;DHT22;24126;52.672;13.622;2022-08-19T06:29:04;26.20;73.50
38325;DHT22;24126;52.672;13.622;2022-08-19T06:31:32;26.20;73.60
38325;DHT22;24126;52.672;13.622;2022-08-19T06:34:01;26.20;73.50
38325;DHT22;24126;52.672;13.622;2022-08-19T06:36:30;26.20;73.50
38325;DHT22;24126;52.672;13.622;2022-08-19T06:39:00;26.30;73.90
38325;DHT22;24126;52.672;13.622;2022-08-19T06:41:28;26.30;73.80
38325;DHT22;24126;52.672;13.622;2022-08-19T06:43:56;26.30;73.70
38325;DHT22;24126;52.672;13.622;2022-08-19T06:46:24;26.40;73.90
38325;DHT22;24126;52.672;13.622;2022-08-19T06:48:52;26.40;73.70
38325;DHT22;24126;52.672;13.622;2022-08-19T06:51:21;26.50;73.80
38325;DHT22;24126;52.672;13.622;2022-08-19T06:53:50;26.50;73.90
38325;DHT22;24126;52.672;13.622;2022-08-19T06:56:18;26.50;73.80
38325;DHT22;24126;52.672;13.622;2022-08-19T06:58:47;26.50;73.70
38325;DHT22;24126;52.672;13.622;2022-08-19T07:01:16;26.50;73.80
38325;DHT22;24126;52.672;13.622;2022-08-19T07:03:43;26.60;73.80
38325;DHT22;24126;52.672;13.622;2022-08-19T07:06:13;26.60;73.70
38325;DHT22;24126;52.672;13.622;2022-08-19T07:08:44;26.60;73.70
38325;DHT22;24126;52.672;13.622;2022-08-19T07:11:14;26.60;73.60
38325;DHT22;24126;52.672;13.622;2022-08-19T07:13:43;26.70;73.80
38325;DHT22;24126;52.672;13.622;2022-08-19T07:16:13;26.70;73.60
38325;DHT22;24126;52.672;13.622;2022-08-19T07:18:41;26.70;73.70
38325;DHT22;24126;52.672;13.622;2022-08-19T07:21:14;26.80;73.80
38325;DHT22;24126;52.672;13.622;2022-08-19T07:23:42;26.80;73.80
38325;DHT22;24126;52.672;13.622;2022-08-19T07:26:20;26.80;73.90
38325;DHT22;24126;52.672;13.622;2022-08-19T07:28:48;26.70;74.00
38325;DHT22;24126;52.672;13.622;2022-08-19T07:31:17;26.70;74.20
38325;DHT22;24126;52.672;13.622;2022-08-19T07:33:45;26.70;74.30
38325;DHT22;24126;52.672;13.622;2022-08-19T07:36:13;26.70;74.20
38325;DHT22;24126;52.672;13.622;2022-08-19T07:38:44;26.70;74.30
38325;DHT22;24126;52.672;13.622;2022-08-19T07:41:14;26.70;74.20
38325;DHT22;24126;52.672;13.622;2022-08-19T07:43:41;26.80;74.20
38325;DHT22;24126;52.672;13.622;2022-08-19T07:46:10;26.80;74.30
38325;DHT22;24126;52.672;13.622;2022-08-19T07:48:39;26.80;74.30
38325;DHT22;24126;52.672;13.622;2022-08-19T07:51:07;26.80;74.30
38325;DHT22;24126;52.672;13.622;2022-08-19T07:53:35;26.80;74.20
38325;DHT22;24126;52.672;13.622;2022-08-19T07:56:03;26.90;74.20
38325;DHT22;24126;52.672;13.622;2022-08-19T07:58:32;26.90;74.20
38325;DHT22;24126;52.672;13.622;2022-08-19T08:00:59;26.90;74.10
38325;DHT22;24126;52.672;13.622;2022-08-19T08:03:27;26.90;74.10
38325;DHT22;24126;52.672;13.622;2022-08-19T08:06:08;27.00;74.00
38325;DHT22;24126;52.672;13.622;2022-08-19T08:08:54;27.00;74.10
38325;DHT22;24126;52.672;13.622;2022-08-19T08:11:51;27.00;73.90
38325;DHT22;24126;52.672;13.622;2022-08-19T08:14:23;27.00;74.00
38325;DHT22;24126;52.672;13.622;2022-08-19T08:16:50;27.10;74.10
38325;DHT22;24126;52.672;13.622;2022-08-19T08:19:19;27.10;73.60
38325;DHT22;24126;52.672;13.622;2022-08-19T08:21:47;27.10;73.80
38325;DHT22;24126;52.672;13.622;2022-08-19T08:24:15;27.10;73.60
38325;DHT22;24126;52.672;13.622;2022-08-19T08:26:42;27.10;73.80
38325;DHT22;24126;52.672;13.622;2022-08-19T08:29:11;27.20;73.70
38325;DHT22;24126;52.672;13.622;2022-08-19T08:31:39;27.20;73.90
38325;DHT22;24126;52.672;13.622;2022-08-19T08:34:07;27.20;73.80
38325;DHT22;24126;52.672;13.622;2022-08-19T08:36:38;27.20;73.40
38325;DHT22;24126;52.672;13.622;2022-08-19T08:39:17;27.30;73.10
38325;DHT22;24126;52.672;13.622;2022-08-19T08:44:21;27.30;73.10
38325;DHT22;24126;52.672;13.622;2022-08-19T08:46:49;27.40;72.60
38325;DHT22;24126;52.672;13.622;2022-08-19T08:51:47;27.40;72.70
38325;DHT22;24126;52.672;13.622;2022-08-19T08:54:19;27.50;72.40
38325;DHT22;24126;52.672;13.622;2022-08-19T08:56:46;27.60;72.30
38325;DHT22;24126;52.672;13.622;2022-08-19T09:01:44;27.80;71.80
38325;DHT22;24126;52.672;13.622;2022-08-19T09:04:12;27.90;71.50
38325;DHT22;24126;52.672;13.622;2022-08-19T09:06:56;28.00;71.40
38325;DHT22;24126;52.672;13.622;2022-08-19T09:09:28;28.20;71.00
38325;DHT22;24126;52.672;13.622;2022-08-19T09:12:20;28.30;71.10
38325;DHT22;24126;52.672;13.622;2022-08-19T09:14:52;28.50;70.90
38325;DHT22;24126;52.672;13.622;2022-08-19T09:17:22;28.70;71.60
38325;DHT22;24126;52.672;13.622;2022-08-19T09:22:30;29.10;69.50
38325;DHT22;24126;52.672;13.622;2022-08-19T09:24:57;29.20;68.50
38325;DHT22;24126;52.672;13.622;2022-08-19T09:27:25;29.30;67.80
38325;DHT22;24126;52.672;13.622;2022-08-19T09:29:53;29.30;67.20
38325;DHT22;24126;52.672;13.622;2022-08-19T09:32:21;29.30;67.30
38325;DHT22;24126;52.672;13.622;2022-08-19T09:34:49;29.30;67.30
38325;DHT22;24126;52.672;13.622;2022-08-19T09:37:20;29.30;67.60
38325;DHT22;24126;52.672;13.622;2022-08-19T09:39:48;29.30;67.40
38325;DHT22;24126;52.672;13.622;2022-08-19T09:42:15;29.40;67.50
38325;DHT22;24126;52.672;13.622;2022-08-19T09:44:42;29.40;67.00
38325;DHT22;24126;52.672;13.622;2022-08-19T09:47:10;29.40;66.60
38325;DHT22;24126;52.672;13.622;2022-08-19T09:49:39;29.60;66.30
38325;DHT22;24126;52.672;13.622;2022-08-19T09:52:10;29.80;66.50
38325;DHT22;24126;52.672;13.622;2022-08-19T09:54:38;30.10;65.80
38325;DHT22;24126;52.672;13.622;2022-08-19T09:57:05;30.40;65.10
38325;DHT22;24126;52.672;13.622;2022-08-19T09:59:33;30.60;64.30
38325;DHT22;24126;52.672;13.622;2022-08-19T10:02:00;30.60;64.00
38325;DHT22;24126;52.672;13.622;2022-08-19T10:04:27;30.60;63.30
38325;DHT22;24126;52.672;13.622;2022-08-19T10:07:09;30.60;63.20
38325;DHT22;24126;52.672;13.622;2022-08-19T10:09:36;30.50;63.10
38325;DHT22;24126;52.672;13.622;2022-08-19T10:12:04;30.40;63.20
38325;DHT22;24126;52.672;13.622;2022-08-19T10:14:31;30.40;64.30
38325;DHT22;24126;52.672;13.622;2022-08-19T10:16:58;30.40;63.70
38325;DHT22;24126;52.672;13.622;2022-08-19T10:19:26;30.40;63.30
38325;DHT22;24126;52.672;13.622;2022-08-19T10:21:55;30.50;63.00
38325;DHT22;24126;52.672;13.622;2022-08-19T10:24:23;30.60;62.70
38325;DHT22;24126;52.672;13.622;2022-08-19T10:26:51;30.70;62.40
38325;DHT22;24126;52.672;13.622;2022-08-19T10:29:18;30.60;61.90
38325;DHT22;24126;52.672;13.622;2022-08-19T10:31:46;30.60;62.20
38325;DHT22;24126;52.672;13.622;2022-08-19T10:34:13;30.70;62.20
38325;DHT22;24126;52.672;13.622;2022-08-19T10:36:40;30.80;62.20
38325;DHT22;24126;52.672;13.622;2022-08-19T10:39:09;30.80;61.60
38325;DHT22;24126;52.672;13.622;2022-08-19T10:41:38;30.80;61.40
38325;DHT22;24126;52.672;13.622;2022-08-19T10:44:09;30.80;61.30
38325;DHT22;24126;52.672;13.622;2022-08-19T10:46:38;30.70;61.30
38325;DHT22;24126;52.672;13.622;2022-08-19T10:49:08;30.60;61.20
38325;DHT22;24126;52.672;13.622;2022-08-19T10:51:35;30.60;61.50
38325;DHT22;24126;52.672;13.622;2022-08-19T10:54:20;30.50;61.80
38325;DHT22;24126;52.672;13.622;2022-08-19T10:56:48;30.50;61.60
38325;DHT22;24126;52.672;13.622;2022-08-19T10:59:27;30.40;61.60
38325;DHT22;24126;52.672;13.622;2022-08-19T11:01:59;30.40;61.80
38325;DHT22;24126;52.672;13.622;2022-08-19T11:04:26;30.30;61.80
38325;DHT22;24126;52.672;13.622;2022-08-19T11:06:53;30.30;61.60
38325;DHT22;24126;52.672;13.622;2022-08-19T11:09:21;30.30;61.60
38325;DHT22;24126;52.672;13.622;2022-08-19T11:11:50;30.20;61.90
38325;DHT22;24126;52.672;13.622;2022-08-19T11:14:18;30.10;61.80
38325;DHT22;24126;52.672;13.622;2022-08-19T11:16:47;30.10;62.00
38325;DHT22;24126;52.672;13.622;2022-08-19T11:19:15;30.00;62.00
38325;DHT22;24126;52.672;13.622;2022-08-19T11:21:45;30.00;62.00
38325;DHT22;24126;52.672;13.622;2022-08-19T11:24:15;30.10;61.90
38325;DHT22;24126;52.672;13.622;2022-08-19T11:26:43;30.10;61.90
38325;DHT22;24126;52.672;13.622;2022-08-19T11:29:11;30.10;61.90
38325;DHT22;24126;52.672;13.622;2022-08-19T11:31:43;30.10;61.70
38325;DHT22;24126;52.672;13.622;2022-08-19T11:34:11;30.10;61.80
38325;DHT22;24126;52.672;13.622;2022-08-19T11:36:41;30.10;61.80
38325;DHT22;24126;52.672;13.622;2022-08-19T11:39:10;30.00;61.90
38325;DHT22;24126;52.672;13.622;2022-08-19T11:41:38;30.00;62.20
38325;DHT22;24126;52.672;13.622;2022-08-19T11:44:05;30.00;62.40
38325;DHT22;24126;52.672;13.622;2022-08-19T11:46:36;30.00;62.50
38325;DHT22;24126;52.672;13.622;2022-08-19T11:49:04;30.00;62.70
38325;DHT22;24126;52.672;13.622;2022-08-19T11:51:33;30.00;62.80
38325;DHT22;24126;52.672;13.622;2022-08-19T11:54:01;30.00;63.10
38325;DHT22;24126;52.672;13.622;2022-08-19T11:56:29;30.00;62.90
38325;DHT22;24126;52.672;13.622;2022-08-19T11:58:57;30.00;62.90
38325;DHT22;24126;52.672;13.622;2022-08-19T12:01:25;30.00;62.90
38325;DHT22;24126;52.672;13.622;2022-08-19T12:03:53;29.90;63.10
38325;DHT22;24126;52.672;13.622;2022-08-19T12:06:22;29.90;63.30
38325;DHT22;24126;52.672;13.622;2022-08-19T12:08:55;29.80;63.50
38325;DHT22;24126;52.672;13.622;2022-08-19T12:11:22;29.90;63.80
38325;DHT22;24126;52.672;13.622;2022-08-19T12:13:50;30.00;63.70
38325;DHT22;24126;52.672;13.622;2022-08-19T12:16:19;30.10;63.60
38325;DHT22;24126;52.672;13.622;2022-08-19T12:18:47;30.20;63.20
38325;DHT22;24126;52.672;13.622;2022-08-19T12:21:18;30.20;62.90
38325;DHT22;24126;52.672;13.622;2022-08-19T12:23:47;30.30;62.60
38325;DHT22;24126;52.672;13.622;2022-08-19T12:26:15;30.30;62.30
38325;DHT22;24126;52.672;13.622;2022-08-19T12:28:43;30.30;62.30
38325;DHT22;24126;52.672;13.622;2022-08-19T12:31:11;30.30;62.50
38325;DHT22;24126;52.672;13.622;2022-08-19T12:33:39;30.30;62.60
38325;DHT22;24126;52.672;13.622;2022-08-19T12:36:07;30.30;62.50
38325;DHT22;24126;52.672;13.622;2022-08-19T12:38:36;30.30;62.50
38325;DHT22;24126;52.672;13.622;2022-08-19T12:41:03;30.40;62.60
38325;DHT22;24126;52.672;13.622;2022-08-19T12:43:33;30.30;62.50
38325;DHT22;24126;52.672;13.622;2022-08-19T12:46:01;30.50;62.60
38325;DHT22;24126;52.672;13.622;2022-08-19T12:48:30;30.60;62.30
38325;DHT22;24126;52.672;13.622;2022-08-19T12:50:57;30.80;61.90
38325;DHT22;24126;52.672;13.622;2022-08-19T12:53:25;30.90;61.50
38325;DHT22;24126;52.672;13.622;2022-08-19T12:55:55;31.00;61.20
38325;DHT22;24126;52.672;13.622;2022-08-19T12:58:23;31.00;60.80
38325;DHT22;24126;52.672;13.622;2022-08-19T13:00:50;30.90;60.80
38325;DHT22;24126;52.672;13.622;2022-08-19T13:03:17;30.80;61.00
38325;DHT22;24126;52.672;13.622;2022-08-19T13:05:45;30.80;61.00
38325;DHT22;24126;52.672;13.622;2022-08-19T13:08:12;30.70;61.20
38325;DHT22;24126;52.672;13.622;2022-08-19T13:10:39;30.70;61.60
38325;DHT22;24126;52.672;13.622;2022-08-19T13:13:07;30.70;61.80
38325;DHT22;24126;52.672;13.622;2022-08-19T13:15:36;30.70;61.80
38325;DHT22;24126;52.672;13.622;2022-08-19T13:18:05;30.80;61.70
38325;DHT22;24126;52.672;13.622;2022-08-19T13:20:34;30.90;61.60
38325;DHT22;24126;52.672;13.622;2022-08-19T13:23:02;31.10;61.10
38325;DHT22;24126;52.672;13.622;2022-08-19T13:25:30;31.20;60.80
38325;DHT22;24126;52.672;13.622;2022-08-19T13:27:57;31.40;60.60
38325;DHT22;24126;52.672;13.622;2022-08-19T13:30:24;31.50;60.00
38325;DHT22;24126;52.672;13.622;2022-08-19T13:33:09;31.50;59.80
38325;DHT22;24126;52.672;13.622;2022-08-19T13:38:12;31.50;59.60
38325;DHT22;24126;52.672;13.622;2022-08-19T13:40:40;31.50;59.60
38325;DHT22;24126;52.672;13.622;2022-08-19T13:43:07;31.50;59.60
38325;DHT22;24126;52.672;13.622;2022-08-19T13:45:35;31.40;59.50
38325;DHT22;24126;52.672;13.622;2022-08-19T13:48:03;31.40;59.10
38325;DHT22;24126;52.672;13.622;2022-08-19T13:50:32;31.30;59.20
38325;DHT22;24126;52.672;13.622;2022-08-19T13:53:00;31.20;59.20
38325;DHT22;24126;52.672;13.622;2022-08-19T13:55:27;31.20;59.40
38325;DHT22;24126;52.672;13.622;2022-08-19T13:57:55;31.20;59.50
38325;DHT22;24126;52.672;13.622;2022-08-19T14:00:23;31.20;59.70
38325;DHT22;24126;52.672;13.622;2022-08-19T14:02:52;31.20;59.70
38325;DHT22;24126;52.672;13.622;2022-08-19T14:05:20;31.20;59.60
38325;DHT22;24126;52.672;13.622;2022-08-19T14:07:47;31.20;59.50
38325;DHT22;24126;52.672;13.622;2022-08-19T14:10:15;31.20;59.50
38325;DHT22;24126;52.672;13.622;2022-08-19T14:12:43;31.20;59.50
38325;DHT22;24126;52.672;13.622;2022-08-19T14:15:10;31.20;59.40
38325;DHT22;24126;52.672;13.622;2022-08-19T14:17:38;31.20;59.20
38325;DHT22;24126;52.672;13.622;2022-08-19T14:20:06;31.20;59.30
38325;DHT22;24126;52.672;13.622;2022-08-19T14:22:36;31.20;59.20
38325;DHT22;24126;52.672;13.622;2022-08-19T14:25:05;31.10;59.20
38325;DHT22;24126;52.672;13.622;2022-08-19T14:27:33;31.10;59.20
38325;DHT22;24126;52.672;13.622;2022-08-19T14:30:01;31.00;59.30
38325;DHT22;24126;52.672;13.622;2022-08-19T14:32:28;31.00;59.30
38325;DHT22;24126;52.672;13.622;2022-08-19T14:34:56;31.00;59.30
38325;DHT22;24126;52.672;13.622;2022-08-19T14:37:23;31.00;59.40
38325;DHT22;24126;52.672;13.622;2022-08-19T14:39:51;31.00;59.50
38325;DHT22;24126;52.672;13.622;2022-08-19T14:42:19;31.00;59.60
38325;DHT22;24126;52.672;13.622;2022-08-19T14:44:46;31.00;59.70
38325;DHT22;24126;52.672;13.622;2022-08-19T14:47:13;31.00;59.50
38325;DHT22;24126;52.672;13.622;2022-08-19T14:49:40;31.00;59.30
38325;DHT22;24126;52.672;13.622;2022-08-19T14:52:08;31.00;59.30
38325;DHT22;24126;52.672;13.622;2022-08-19T14:54:35;31.00;59.40
38325;DHT22;24126;52.672;13.622;2022-08-19T14:57:02;31.00;59.30
38325;DHT22;24126;52.672;13.622;2022-08-19T14:59:30;31.00;59.30
38325;DHT22;24126;52.672;13.622;2022-08-19T15:01:57;31.00;59.20
38325;DHT22;24126;52.672;13.622;2022-08-19T15:04:25;31.00;59.30
38325;DHT22;24126;52.672;13.622;2022-08-19T15:06:52;30.90;59.30
38325;DHT22;24126;52.672;13.622;2022-08-19T15:09:20;30.80;59.30
38325;DHT22;24126;52.672;13.622;2022-08-19T15:11:47;30.80;59.40
38325;DHT22;24126;52.672;13.622;2022-08-19T15:14:15;30.80;59.40
38325;DHT22;24126;52.672;13.622;2022-08-19T15:16:43;30.70;59.40
38325;DHT22;24126;52.672;13.622;2022-08-19T15:19:10;30.60;59.50
38325;DHT22;24126;52.672;13.622;2022-08-19T15:21:37;30.50;59.60
38325;DHT22;24126;52.672;13.622;2022-08-19T15:24:05;30.50;59.70
38325;DHT22;24126;52.672;13.622;2022-08-19T15:26:32;30.40;59.80
38325;DHT22;24126;52.672;13.622;2022-08-19T15:29:00;30.30;60.00
38325;DHT22;24126;52.672;13.622;2022-08-19T15:31:27;30.30;60.10
38325;DHT22;24126;52.672;13.622;2022-08-19T15:33:55;30.10;60.20
38325;DHT22;24126;52.672;13.622;2022-08-19T15:36:23;30.10;60.30
38325;DHT22;24126;52.672;13.622;2022-08-19T15:38:51;30.00;60.30
38325;DHT22;24126;52.672;13.622;2022-08-19T15:41:20;30.00;60.40
38325;DHT22;24126;52.672;13.622;2022-08-19T15:43:58;29.90;60.60